Aguanga, CA (92536)

8:51 AM PDT on October 02, 2014 (GMT -0700)
NE Aguanga | Change Station
CLOSE
Current Station
Personal Weather Station
Location: Aguanga, CA
Elevation: 3724 ft
Nearby Weather Stations

Elev 3724 ft 33.49 °N, 116.78 °W | Updated 31 seconds ago

Clear
Clear
69.4 °F
Feels Like 69.4 °F
N
12.0
Wind Variable Wind from East
Gusts 20.0 mph

Today
High -- | Low -- °F
--% Chance of Precip.
Yesterday
High -- | Low -- °F
Precip. -- in
6:42 AM 6:30 PM
First Quarter, 60% visible
Pressure 30.03 in
Visibility 10.0 miles
Clouds Clear
Dew Point 23 °F
Humidity 17%
Rainfall 0.00 in
Snow Depth 4 in , 1 in , 0 in
UV 2 out of 12
Pollen 5.40 out of 12
Ozone Good
Flu Activity Not available.
METAR KF70 021535Z AUTO 01004KT 10SM CLR 20/13 A3003 RMK AO1

More Conditions Fewer Conditions

Pressure 30.03 in
Visibility 10.0 miles
Clouds Clear
Dew Point 23 °F
Humidity 17%
Rainfall 0.00 in
Snow Depth 4 in , 1 in , 0 in
UV 2 out of 12
Pollen 5.40 out of 12
Ozone Good
Flu Activity Not available.
METAR KF70 021535Z AUTO 01004KT 10SM CLR 20/13 A3003 RMK AO1

More Conditions Fewer Conditions

10-Day Weather Forecast

Almanac

Astronomy

Oct. 02, 2014 Rise Set
Actual Time 6:42 AM PDT 6:30 PM PDT
Civil Twilight 6:17 AM PDT 6:54 PM PDT
Nautical Twilight 5:48 AM PDT 7:23 PM PDT
Astronomical Twilight 5:19 AM PDT 7:52 PM PDT
Moon 2:25 PM PDT 12:20 AM PDT
Length of Visible Light 12h 37m
Length of Day
11h 47m
Tomorrow will be 2m 2s shorter.
First Quarter, 60% of the Moon is Illuminated
Today
First Quarter
Oct 8
Full
Oct 15
Last Quarter
Oct 23
New
Oct 30
First Quarter

Today's Extremes

State Highs State Lows

Community

WunderPhotos

Upload Photos

1,758,276 photos uploaded!

WunderBlogs® & News

Nearby

Air Quality

  Air Quality AQ Index Pollutant
Yesterday Moderate
OZONE
Yesterday Good
PM10
Current Good
OZONE
Thursday Good
PM10
Thursday Moderate
OZONE
Thursday Good
CO
Thursday Good
NO2

Snow Depth

Station Depth Elevation
CSS Lab 4 in 6900 ft
Leavitt Lake 1 in 9400 ft
Blue Lakes 0 in 8000 ft
Forestdale Creek 1 in 8029 ft
Spratt Creek 1 in 6200 ft

Earthquake Activity

City Distance Mag. Time & Date
Avalon, California 89 miles 3.2 10:12 PM PDT
2014-10-01
Avalon, California 89 miles 2.6 1:28 PM PDT
2014-09-30
Minimum magnitude displayed is 2.5.

Coastal Water Temperatures

Place Temperature
No Stations Reporting

Nearby Weather Stations